sensor_id;sensor_type;location;lat;lon;timestamp;P1;durP1;ratioP1;P2;durP2;ratioP2
8536;SDS011;4306;50.210;10.628;2024-02-26T00:00:21;4.93;;;2.40;;
8536;SDS011;4306;50.210;10.628;2024-02-26T00:02:49;5.30;;;2.70;;
8536;SDS011;4306;50.210;10.628;2024-02-26T00:05:16;3.83;;;2.33;;
8536;SDS011;4306;50.210;10.628;2024-02-26T00:07:43;3.93;;;2.43;;
8536;SDS011;4306;50.210;10.628;2024-02-26T00:10:10;5.27;;;3.00;;
8536;SDS011;4306;50.210;10.628;2024-02-26T00:12:38;4.30;;;2.20;;
8536;SDS011;4306;50.210;10.628;2024-02-26T00:15:05;5.60;;;2.60;;
8536;SDS011;4306;50.210;10.628;2024-02-26T00:17:34;3.90;;;2.30;;
8536;SDS011;4306;50.210;10.628;2024-02-26T00:20:01;4.03;;;2.10;;
8536;SDS011;4306;50.210;10.628;2024-02-26T00:22:29;7.57;;;2.73;;
8536;SDS011;4306;50.210;10.628;2024-02-26T00:24:56;4.10;;;2.50;;
8536;SDS011;4306;50.210;10.628;2024-02-26T00:27:23;4.10;;;2.43;;
8536;SDS011;4306;50.210;10.628;2024-02-26T00:29:51;4.50;;;2.30;;
8536;SDS011;4306;50.210;10.628;2024-02-26T00:32:18;4.18;;;2.35;;
8536;SDS011;4306;50.210;10.628;2024-02-26T00:34:45;5.03;;;2.47;;
8536;SDS011;4306;50.210;10.628;2024-02-26T00:37:12;4.70;;;2.40;;
8536;SDS011;4306;50.210;10.628;2024-02-26T00:39:39;3.55;;;2.08;;
8536;SDS011;4306;50.210;10.628;2024-02-26T00:42:06;3.80;;;2.47;;
8536;SDS011;4306;50.210;10.628;2024-02-26T00:44:34;3.87;;;2.13;;
8536;SDS011;4306;50.210;10.628;2024-02-26T00:47:02;4.27;;;2.60;;
8536;SDS011;4306;50.210;10.628;2024-02-26T00:49:29;4.03;;;2.33;;
8536;SDS011;4306;50.210;10.628;2024-02-26T00:51:56;4.27;;;2.30;;
8536;SDS011;4306;50.210;10.628;2024-02-26T00:54:23;4.23;;;2.30;;
8536;SDS011;4306;50.210;10.628;2024-02-26T00:56:50;4.50;;;2.30;;
8536;SDS011;4306;50.210;10.628;2024-02-26T00:59:17;5.68;;;2.45;;
8536;SDS011;4306;50.210;10.628;2024-02-26T01:01:44;4.50;;;2.63;;
8536;SDS011;4306;50.210;10.628;2024-02-26T01:04:13;4.93;;;2.40;;
8536;SDS011;4306;50.210;10.628;2024-02-26T01:06:40;4.20;;;2.30;;
8536;SDS011;4306;50.210;10.628;2024-02-26T01:09:07;3.60;;;2.10;;
8536;SDS011;4306;50.210;10.628;2024-02-26T01:11:34;4.30;;;2.30;;
8536;SDS011;4306;50.210;10.628;2024-02-26T01:14:01;4.77;;;2.20;;
8536;SDS011;4306;50.210;10.628;2024-02-26T01:16:28;4.30;;;2.43;;
8536;SDS011;4306;50.210;10.628;2024-02-26T01:18:57;3.70;;;2.10;;
8536;SDS011;4306;50.210;10.628;2024-02-26T01:21:25;4.80;;;2.40;;
8536;SDS011;4306;50.210;10.628;2024-02-26T01:23:54;3.60;;;2.20;;
8536;SDS011;4306;50.210;10.628;2024-02-26T01:26:21;3.33;;;2.07;;
8536;SDS011;4306;50.210;10.628;2024-02-26T01:28:48;4.07;;;2.20;;
8536;SDS011;4306;50.210;10.628;2024-02-26T01:31:15;5.13;;;2.20;;
8536;SDS011;4306;50.210;10.628;2024-02-26T01:33:42;3.57;;;2.50;;
8536;SDS011;4306;50.210;10.628;2024-02-26T01:36:09;4.20;;;2.20;;
8536;SDS011;4306;50.210;10.628;2024-02-26T01:38:37;4.17;;;2.30;;
8536;SDS011;4306;50.210;10.628;2024-02-26T01:41:04;3.47;;;2.17;;
8536;SDS011;4306;50.210;10.628;2024-02-26T01:43:32;3.63;;;2.07;;
8536;SDS011;4306;50.210;10.628;2024-02-26T01:45:59;3.33;;;2.00;;
8536;SDS011;4306;50.210;10.628;2024-02-26T01:48:26;3.50;;;1.87;;
8536;SDS011;4306;50.210;10.628;2024-02-26T01:50:53;3.20;;;1.87;;
8536;SDS011;4306;50.210;10.628;2024-02-26T01:53:20;3.73;;;2.10;;
8536;SDS011;4306;50.210;10.628;2024-02-26T01:55:49;3.53;;;2.07;;
8536;SDS011;4306;50.210;10.628;2024-02-26T01:58:16;6.23;;;2.50;;
8536;SDS011;4306;50.210;10.628;2024-02-26T02:00:43;2.73;;;1.83;;
8536;SDS011;4306;50.210;10.628;2024-02-26T02:03:10;3.33;;;2.00;;
8536;SDS011;4306;50.210;10.628;2024-02-26T02:05:37;4.87;;;2.27;;
8536;SDS011;4306;50.210;10.628;2024-02-26T02:08:07;5.10;;;2.17;;
8536;SDS011;4306;50.210;10.628;2024-02-26T02:10:34;3.43;;;1.90;;
8536;SDS011;4306;50.210;10.628;2024-02-26T02:13:03;4.10;;;2.27;;
8536;SDS011;4306;50.210;10.628;2024-02-26T02:15:30;3.90;;;1.65;;
8536;SDS011;4306;50.210;10.628;2024-02-26T02:17:57;3.97;;;2.37;;
8536;SDS011;4306;50.210;10.628;2024-02-26T02:20:26;3.40;;;1.63;;
8536;SDS011;4306;50.210;10.628;2024-02-26T02:22:58;3.53;;;1.90;;
8536;SDS011;4306;50.210;10.628;2024-02-26T02:25:25;3.33;;;1.97;;
8536;SDS011;4306;50.210;10.628;2024-02-26T02:27:53;3.70;;;2.00;;
8536;SDS011;4306;50.210;10.628;2024-02-26T02:30:20;4.90;;;2.37;;
8536;SDS011;4306;50.210;10.628;2024-02-26T02:32:50;3.60;;;1.90;;
8536;SDS011;4306;50.210;10.628;2024-02-26T02:35:17;3.90;;;2.17;;
8536;SDS011;4306;50.210;10.628;2024-02-26T02:37:46;4.47;;;2.30;;
8536;SDS011;4306;50.210;10.628;2024-02-26T02:40:13;3.77;;;2.10;;
8536;SDS011;4306;50.210;10.628;2024-02-26T02:42:40;4.30;;;2.40;;
8536;SDS011;4306;50.210;10.628;2024-02-26T02:45:08;3.63;;;2.17;;
8536;SDS011;4306;50.210;10.628;2024-02-26T02:47:35;4.30;;;2.10;;
8536;SDS011;4306;50.210;10.628;2024-02-26T02:50:03;4.50;;;2.30;;
8536;SDS011;4306;50.210;10.628;2024-02-26T02:52:31;4.77;;;2.40;;
8536;SDS011;4306;50.210;10.628;2024-02-26T02:55:00;4.27;;;2.30;;
8536;SDS011;4306;50.210;10.628;2024-02-26T02:57:27;6.30;;;2.17;;
8536;SDS011;4306;50.210;10.628;2024-02-26T02:59:55;3.57;;;2.00;;
8536;SDS011;4306;50.210;10.628;2024-02-26T03:02:22;4.97;;;2.37;;
8536;SDS011;4306;50.210;10.628;2024-02-26T03:04:49;5.55;;;2.60;;
8536;SDS011;4306;50.210;10.628;2024-02-26T03:07:17;4.10;;;2.10;;
8536;SDS011;4306;50.210;10.628;2024-02-26T03:09:43;4.27;;;2.40;;
8536;SDS011;4306;50.210;10.628;2024-02-26T03:12:12;5.40;;;2.57;;
8536;SDS011;4306;50.210;10.628;2024-02-26T03:14:39;5.77;;;2.47;;
8536;SDS011;4306;50.210;10.628;2024-02-26T03:17:06;4.00;;;2.17;;
8536;SDS011;4306;50.210;10.628;2024-02-26T03:19:33;5.67;;;2.73;;
8536;SDS011;4306;50.210;10.628;2024-02-26T03:22:00;4.07;;;2.20;;
8536;SDS011;4306;50.210;10.628;2024-02-26T03:24:27;3.65;;;2.22;;
8536;SDS011;4306;50.210;10.628;2024-02-26T03:26:54;4.80;;;2.70;;
8536;SDS011;4306;50.210;10.628;2024-02-26T03:29:22;5.10;;;2.63;;
8536;SDS011;4306;50.210;10.628;2024-02-26T03:31:50;5.63;;;3.10;;
8536;SDS011;4306;50.210;10.628;2024-02-26T03:34:17;4.70;;;2.83;;
8536;SDS011;4306;50.210;10.628;2024-02-26T03:36:44;6.23;;;2.83;;
8536;SDS011;4306;50.210;10.628;2024-02-26T03:39:11;5.53;;;3.43;;
8536;SDS011;4306;50.210;10.628;2024-02-26T03:41:38;5.77;;;3.30;;
8536;SDS011;4306;50.210;10.628;2024-02-26T03:44:05;5.73;;;3.20;;
8536;SDS011;4306;50.210;10.628;2024-02-26T03:46:34;6.10;;;3.50;;
8536;SDS011;4306;50.210;10.628;2024-02-26T03:49:01;5.53;;;2.93;;
8536;SDS011;4306;50.210;10.628;2024-02-26T03:51:28;5.32;;;3.17;;
8536;SDS011;4306;50.210;10.628;2024-02-26T03:53:56;4.32;;;2.70;;
8536;SDS011;4306;50.210;10.628;2024-02-26T03:56:23;5.63;;;3.30;;
8536;SDS011;4306;50.210;10.628;2024-02-26T03:58:51;5.20;;;2.65;;
8536;SDS011;4306;50.210;10.628;2024-02-26T04:01:18;6.07;;;3.20;;
8536;SDS011;4306;50.210;10.628;2024-02-26T04:03:46;5.72;;;3.00;;
8536;SDS011;4306;50.210;10.628;2024-02-26T04:06:13;6.30;;;2.85;;
8536;SDS011;4306;50.210;10.628;2024-02-26T04:08:43;4.97;;;3.00;;
8536;SDS011;4306;50.210;10.628;2024-02-26T04:11:10;5.53;;;3.23;;
8536;SDS011;4306;50.210;10.628;2024-02-26T04:13:37;7.43;;;3.13;;
8536;SDS011;4306;50.210;10.628;2024-02-26T04:16:04;5.43;;;3.60;;
8536;SDS011;4306;50.210;10.628;2024-02-26T04:18:32;5.77;;;3.17;;
8536;SDS011;4306;50.210;10.628;2024-02-26T04:21:00;5.00;;;3.07;;
8536;SDS011;4306;50.210;10.628;2024-02-26T04:23:27;6.55;;;3.35;;
8536;SDS011;4306;50.210;10.628;2024-02-26T04:25:55;6.03;;;3.13;;
8536;SDS011;4306;50.210;10.628;2024-02-26T04:28:21;6.10;;;3.20;;
8536;SDS011;4306;50.210;10.628;2024-02-26T04:30:50;5.80;;;3.43;;
8536;SDS011;4306;50.210;10.628;2024-02-26T04:33:17;7.07;;;3.87;;
8536;SDS011;4306;50.210;10.628;2024-02-26T04:35:44;6.40;;;3.60;;
8536;SDS011;4306;50.210;10.628;2024-02-26T04:38:13;6.03;;;3.63;;
8536;SDS011;4306;50.210;10.628;2024-02-26T04:40:40;5.70;;;3.70;;
8536;SDS011;4306;50.210;10.628;2024-02-26T04:43:07;5.40;;;3.30;;
8536;SDS011;4306;50.210;10.628;2024-02-26T04:45:34;7.88;;;3.85;;
8536;SDS011;4306;50.210;10.628;2024-02-26T04:48:01;6.80;;;4.15;;
8536;SDS011;4306;50.210;10.628;2024-02-26T04:50:28;6.53;;;4.07;;
8536;SDS011;4306;50.210;10.628;2024-02-26T04:52:55;7.60;;;4.10;;
8536;SDS011;4306;50.210;10.628;2024-02-26T04:55:24;8.23;;;4.00;;
8536;SDS011;4306;50.210;10.628;2024-02-26T04:57:51;5.97;;;3.30;;
8536;SDS011;4306;50.210;10.628;2024-02-26T05:00:18;6.40;;;3.83;;
8536;SDS011;4306;50.210;10.628;2024-02-26T05:02:45;6.75;;;3.97;;
8536;SDS011;4306;50.210;10.628;2024-02-26T05:05:13;6.87;;;4.20;;
8536;SDS011;4306;50.210;10.628;2024-02-26T05:07:40;6.53;;;4.15;;
8536;SDS011;4306;50.210;10.628;2024-02-26T05:10:08;8.47;;;4.07;;
8536;SDS011;4306;50.210;10.628;2024-02-26T05:12:37;8.25;;;5.05;;
8536;SDS011;4306;50.210;10.628;2024-02-26T05:15:06;7.13;;;4.30;;
8536;SDS011;4306;50.210;10.628;2024-02-26T05:17:33;8.02;;;3.88;;
8536;SDS011;4306;50.210;10.628;2024-02-26T05:20:00;9.75;;;4.97;;
8536;SDS011;4306;50.210;10.628;2024-02-26T05:22:28;7.67;;;4.63;;
8536;SDS011;4306;50.210;10.628;2024-02-26T05:24:55;6.88;;;4.00;;
8536;SDS011;4306;50.210;10.628;2024-02-26T05:27:22;23.93;;;11.67;;
8536;SDS011;4306;50.210;10.628;2024-02-26T05:29:50;9.93;;;6.10;;
8536;SDS011;4306;50.210;10.628;2024-02-26T05:32:19;10.63;;;6.03;;
8536;SDS011;4306;50.210;10.628;2024-02-26T05:34:46;10.10;;;5.20;;
8536;SDS011;4306;50.210;10.628;2024-02-26T05:37:13;13.33;;;7.53;;
8536;SDS011;4306;50.210;10.628;2024-02-26T05:39:40;14.15;;;7.90;;
8536;SDS011;4306;50.210;10.628;2024-02-26T05:42:07;10.43;;;7.00;;
8536;SDS011;4306;50.210;10.628;2024-02-26T05:44:34;9.07;;;5.87;;
8536;SDS011;4306;50.210;10.628;2024-02-26T05:47:03;7.33;;;4.80;;
8536;SDS011;4306;50.210;10.628;2024-02-26T05:49:30;8.37;;;5.43;;
8536;SDS011;4306;50.210;10.628;2024-02-26T05:51:58;8.70;;;4.87;;
8536;SDS011;4306;50.210;10.628;2024-02-26T05:54:25;9.10;;;5.30;;
8536;SDS011;4306;50.210;10.628;2024-02-26T05:56:52;11.70;;;5.70;;
8536;SDS011;4306;50.210;10.628;2024-02-26T05:59:19;12.07;;;6.13;;
8536;SDS011;4306;50.210;10.628;2024-02-26T06:01:46;12.20;;;6.70;;
8536;SDS011;4306;50.210;10.628;2024-02-26T06:04:15;9.77;;;6.13;;
8536;SDS011;4306;50.210;10.628;2024-02-26T06:09:10;11.57;;;6.50;;
8536;SDS011;4306;50.210;10.628;2024-02-26T06:11:37;12.82;;;6.50;;
8536;SDS011;4306;50.210;10.628;2024-02-26T06:14:04;11.20;;;6.38;;
8536;SDS011;4306;50.210;10.628;2024-02-26T06:16:31;9.88;;;5.47;;
8536;SDS011;4306;50.210;10.628;2024-02-26T06:18:59;10.65;;;5.55;;
8536;SDS011;4306;50.210;10.628;2024-02-26T06:21:29;7.53;;;4.97;;
8536;SDS011;4306;50.210;10.628;2024-02-26T06:23:56;8.23;;;5.00;;
8536;SDS011;4306;50.210;10.628;2024-02-26T06:26:24;8.47;;;5.10;;
8536;SDS011;4306;50.210;10.628;2024-02-26T06:28:53;9.23;;;5.55;;
8536;SDS011;4306;50.210;10.628;2024-02-26T06:31:21;8.90;;;5.77;;
8536;SDS011;4306;50.210;10.628;2024-02-26T06:33:48;9.17;;;6.07;;
8536;SDS011;4306;50.210;10.628;2024-02-26T06:36:15;23.23;;;10.10;;
8536;SDS011;4306;50.210;10.628;2024-02-26T06:38:43;18.83;;;8.67;;
8536;SDS011;4306;50.210;10.628;2024-02-26T06:41:10;35.20;;;17.75;;
8536;SDS011;4306;50.210;10.628;2024-02-26T06:43:37;15.00;;;8.47;;
8536;SDS011;4306;50.210;10.628;2024-02-26T06:46:05;8.10;;;4.70;;
8536;SDS011;4306;50.210;10.628;2024-02-26T06:48:32;13.73;;;6.75;;
8536;SDS011;4306;50.210;10.628;2024-02-26T06:50:59;103.75;;;35.88;;
8536;SDS011;4306;50.210;10.628;2024-02-26T06:53:26;59.10;;;25.03;;
8536;SDS011;4306;50.210;10.628;2024-02-26T06:55:54;29.17;;;14.50;;
8536;SDS011;4306;50.210;10.628;2024-02-26T06:58:21;17.37;;;9.00;;
8536;SDS011;4306;50.210;10.628;2024-02-26T07:00:48;19.90;;;8.65;;
8536;SDS011;4306;50.210;10.628;2024-02-26T07:03:15;69.00;;;30.07;;
8536;SDS011;4306;50.210;10.628;2024-02-26T07:05:42;39.10;;;18.20;;
8536;SDS011;4306;50.210;10.628;2024-02-26T07:08:10;59.83;;;29.95;;
8536;SDS011;4306;50.210;10.628;2024-02-26T07:10:37;19.42;;;11.55;;
8536;SDS011;4306;50.210;10.628;2024-02-26T07:13:05;14.25;;;8.73;;
8536;SDS011;4306;50.210;10.628;2024-02-26T07:15:32;11.20;;;6.97;;
8536;SDS011;4306;50.210;10.628;2024-02-26T07:17:59;12.90;;;7.43;;
8536;SDS011;4306;50.210;10.628;2024-02-26T07:20:28;15.18;;;8.27;;
8536;SDS011;4306;50.210;10.628;2024-02-26T07:22:55;14.80;;;8.57;;
8536;SDS011;4306;50.210;10.628;2024-02-26T07:25:22;17.15;;;9.90;;
8536;SDS011;4306;50.210;10.628;2024-02-26T07:27:49;18.27;;;9.87;;
8536;SDS011;4306;50.210;10.628;2024-02-26T07:30:18;15.05;;;9.02;;
8536;SDS011;4306;50.210;10.628;2024-02-26T07:32:45;27.43;;;14.23;;
8536;SDS011;4306;50.210;10.628;2024-02-26T07:35:12;19.63;;;10.80;;
8536;SDS011;4306;50.210;10.628;2024-02-26T07:37:39;19.20;;;9.33;;
8536;SDS011;4306;50.210;10.628;2024-02-26T07:40:07;11.50;;;7.00;;
8536;SDS011;4306;50.210;10.628;2024-02-26T07:42:36;8.77;;;5.20;;
8536;SDS011;4306;50.210;10.628;2024-02-26T07:45:04;8.38;;;5.18;;
8536;SDS011;4306;50.210;10.628;2024-02-26T07:47:34;8.68;;;5.50;;
8536;SDS011;4306;50.210;10.628;2024-02-26T07:50:01;7.68;;;4.72;;
8536;SDS011;4306;50.210;10.628;2024-02-26T07:52:28;8.75;;;4.82;;
8536;SDS011;4306;50.210;10.628;2024-02-26T07:54:55;7.95;;;5.38;;
8536;SDS011;4306;50.210;10.628;2024-02-26T07:57:22;8.38;;;5.45;;
8536;SDS011;4306;50.210;10.628;2024-02-26T07:59:49;10.15;;;5.15;;
8536;SDS011;4306;50.210;10.628;2024-02-26T08:02:16;9.23;;;5.20;;
8536;SDS011;4306;50.210;10.628;2024-02-26T08:04:44;6.63;;;4.43;;
8536;SDS011;4306;50.210;10.628;2024-02-26T08:07:11;8.13;;;5.28;;
8536;SDS011;4306;50.210;10.628;2024-02-26T08:09:38;7.30;;;4.38;;
8536;SDS011;4306;50.210;10.628;2024-02-26T08:12:05;10.23;;;5.63;;
8536;SDS011;4306;50.210;10.628;2024-02-26T08:14:33;8.40;;;5.18;;
8536;SDS011;4306;50.210;10.628;2024-02-26T08:17:00;9.18;;;5.47;;
8536;SDS011;4306;50.210;10.628;2024-02-26T08:19:27;9.43;;;6.55;;
8536;SDS011;4306;50.210;10.628;2024-02-26T08:21:55;9.50;;;4.85;;
8536;SDS011;4306;50.210;10.628;2024-02-26T08:24:22;8.48;;;5.18;;
8536;SDS011;4306;50.210;10.628;2024-02-26T08:26:49;9.05;;;5.13;;
8536;SDS011;4306;50.210;10.628;2024-02-26T08:29:16;9.37;;;5.07;;
8536;SDS011;4306;50.210;10.628;2024-02-26T08:31:43;8.88;;;5.80;;
8536;SDS011;4306;50.210;10.628;2024-02-26T08:34:10;7.75;;;5.00;;
8536;SDS011;4306;50.210;10.628;2024-02-26T08:36:37;9.30;;;5.00;;
8536;SDS011;4306;50.210;10.628;2024-02-26T08:39:06;10.25;;;6.20;;
8536;SDS011;4306;50.210;10.628;2024-02-26T08:41:34;7.72;;;4.90;;
8536;SDS011;4306;50.210;10.628;2024-02-26T08:44:01;8.07;;;4.85;;
8536;SDS011;4306;50.210;10.628;2024-02-26T08:46:28;10.05;;;5.65;;
8536;SDS011;4306;50.210;10.628;2024-02-26T08:48:55;11.63;;;6.43;;
8536;SDS011;4306;50.210;10.628;2024-02-26T08:51:22;10.45;;;6.15;;
8536;SDS011;4306;50.210;10.628;2024-02-26T08:53:49;10.63;;;6.25;;
8536;SDS011;4306;50.210;10.628;2024-02-26T08:56:18;9.52;;;6.45;;
8536;SDS011;4306;50.210;10.628;2024-02-26T08:58:46;11.65;;;6.65;;
8536;SDS011;4306;50.210;10.628;2024-02-26T09:01:15;12.27;;;7.38;;
8536;SDS011;4306;50.210;10.628;2024-02-26T09:03:42;9.68;;;5.97;;
8536;SDS011;4306;50.210;10.628;2024-02-26T09:06:09;13.00;;;7.55;;
8536;SDS011;4306;50.210;10.628;2024-02-26T09:08:37;13.93;;;7.28;;
8536;SDS011;4306;50.210;10.628;2024-02-26T09:11:04;10.80;;;6.05;;
8536;SDS011;4306;50.210;10.628;2024-02-26T09:13:33;9.10;;;5.55;;
8536;SDS011;4306;50.210;10.628;2024-02-26T09:16:00;10.73;;;6.20;;
8536;SDS011;4306;50.210;10.628;2024-02-26T09:18:27;12.40;;;7.00;;
8536;SDS011;4306;50.210;10.628;2024-02-26T09:20:54;21.35;;;10.63;;
8536;SDS011;4306;50.210;10.628;2024-02-26T09:23:21;19.98;;;11.23;;
8536;SDS011;4306;50.210;10.628;2024-02-26T09:25:48;10.35;;;6.65;;
8536;SDS011;4306;50.210;10.628;2024-02-26T09:28:15;10.95;;;6.60;;
8536;SDS011;4306;50.210;10.628;2024-02-26T09:30:44;11.52;;;6.53;;
8536;SDS011;4306;50.210;10.628;2024-02-26T09:33:11;7.53;;;5.20;;
8536;SDS011;4306;50.210;10.628;2024-02-26T09:35:40;8.40;;;5.15;;
8536;SDS011;4306;50.210;10.628;2024-02-26T09:38:07;9.60;;;5.78;;
8536;SDS011;4306;50.210;10.628;2024-02-26T09:40:34;8.18;;;4.97;;
8536;SDS011;4306;50.210;10.628;2024-02-26T09:43:02;7.13;;;5.18;;
8536;SDS011;4306;50.210;10.628;2024-02-26T09:45:32;8.45;;;4.82;;
8536;SDS011;4306;50.210;10.628;2024-02-26T09:48:02;7.70;;;5.05;;
8536;SDS011;4306;50.210;10.628;2024-02-26T09:50:31;7.22;;;4.70;;
8536;SDS011;4306;50.210;10.628;2024-02-26T09:52:58;8.77;;;5.05;;
8536;SDS011;4306;50.210;10.628;2024-02-26T09:55:27;8.98;;;5.25;;
8536;SDS011;4306;50.210;10.628;2024-02-26T09:57:54;8.57;;;4.80;;
8536;SDS011;4306;50.210;10.628;2024-02-26T10:00:23;7.47;;;4.82;;
8536;SDS011;4306;50.210;10.628;2024-02-26T10:02:55;7.68;;;5.25;;
8536;SDS011;4306;50.210;10.628;2024-02-26T10:05:25;8.07;;;4.25;;
8536;SDS011;4306;50.210;10.628;2024-02-26T10:07:53;8.15;;;4.30;;
8536;SDS011;4306;50.210;10.628;2024-02-26T10:10:22;7.22;;;4.43;;
8536;SDS011;4306;50.210;10.628;2024-02-26T10:12:50;7.63;;;4.45;;
8536;SDS011;4306;50.210;10.628;2024-02-26T10:15:17;7.38;;;4.78;;
8536;SDS011;4306;50.210;10.628;2024-02-26T10:17:44;6.72;;;4.18;;
8536;SDS011;4306;50.210;10.628;2024-02-26T10:20:11;6.63;;;4.30;;
8536;SDS011;4306;50.210;10.628;2024-02-26T10:22:42;7.65;;;4.60;;
8536;SDS011;4306;50.210;10.628;2024-02-26T10:25:09;6.78;;;4.05;;
8536;SDS011;4306;50.210;10.628;2024-02-26T10:27:36;7.93;;;4.60;;
8536;SDS011;4306;50.210;10.628;2024-02-26T10:30:04;6.50;;;4.03;;
8536;SDS011;4306;50.210;10.628;2024-02-26T10:32:42;6.85;;;4.13;;
8536;SDS011;4306;50.210;10.628;2024-02-26T10:35:10;6.43;;;4.00;;
8536;SDS011;4306;50.210;10.628;2024-02-26T10:37:38;7.68;;;4.85;;
8536;SDS011;4306;50.210;10.628;2024-02-26T10:40:09;6.43;;;4.05;;
8536;SDS011;4306;50.210;10.628;2024-02-26T10:42:37;5.28;;;3.45;;
8536;SDS011;4306;50.210;10.628;2024-02-26T10:45:04;5.95;;;4.00;;
8536;SDS011;4306;50.210;10.628;2024-02-26T10:47:34;5.55;;;3.53;;
8536;SDS011;4306;50.210;10.628;2024-02-26T10:50:01;8.15;;;4.20;;
8536;SDS011;4306;50.210;10.628;2024-02-26T10:52:31;5.32;;;3.22;;
8536;SDS011;4306;50.210;10.628;2024-02-26T10:55:01;7.28;;;3.58;;
8536;SDS011;4306;50.210;10.628;2024-02-26T10:57:31;4.82;;;3.22;;
8536;SDS011;4306;50.210;10.628;2024-02-26T11:00:03;4.63;;;3.75;;
8536;SDS011;4306;50.210;10.628;2024-02-26T11:02:32;5.90;;;3.65;;
8536;SDS011;4306;50.210;10.628;2024-02-26T11:04:59;4.90;;;3.28;;
8536;SDS011;4306;50.210;10.628;2024-02-26T11:07:28;8.13;;;3.72;;
8536;SDS011;4306;50.210;10.628;2024-02-26T11:09:57;6.65;;;3.55;;
8536;SDS011;4306;50.210;10.628;2024-02-26T11:12:28;5.65;;;4.10;;
8536;SDS011;4306;50.210;10.628;2024-02-26T11:15:00;4.88;;;3.10;;
8536;SDS011;4306;50.210;10.628;2024-02-26T11:17:28;4.18;;;2.75;;
8536;SDS011;4306;50.210;10.628;2024-02-26T11:19:56;9.70;;;3.70;;
8536;SDS011;4306;50.210;10.628;2024-02-26T11:22:25;6.70;;;3.75;;
8536;SDS011;4306;50.210;10.628;2024-02-26T11:24:52;5.07;;;3.50;;
8536;SDS011;4306;50.210;10.628;2024-02-26T11:27:23;5.10;;;3.17;;
8536;SDS011;4306;50.210;10.628;2024-02-26T11:29:55;5.40;;;3.38;;
8536;SDS011;4306;50.210;10.628;2024-02-26T11:32:26;5.13;;;3.28;;
8536;SDS011;4306;50.210;10.628;2024-02-26T11:34:55;6.25;;;3.38;;
8536;SDS011;4306;50.210;10.628;2024-02-26T11:37:23;5.22;;;3.38;;
8536;SDS011;4306;50.210;10.628;2024-02-26T11:39:51;6.03;;;3.92;;
8536;SDS011;4306;50.210;10.628;2024-02-26T11:42:22;5.53;;;3.55;;
8536;SDS011;4306;50.210;10.628;2024-02-26T11:44:52;5.82;;;4.25;;
8536;SDS011;4306;50.210;10.628;2024-02-26T11:47:21;6.90;;;4.30;;
8536;SDS011;4306;50.210;10.628;2024-02-26T11:49:49;5.15;;;3.78;;
8536;SDS011;4306;50.210;10.628;2024-02-26T11:52:17;5.95;;;3.38;;
8536;SDS011;4306;50.210;10.628;2024-02-26T11:54:44;5.70;;;3.70;;
8536;SDS011;4306;50.210;10.628;2024-02-26T11:57:20;5.47;;;3.67;;
8536;SDS011;4306;50.210;10.628;2024-02-26T11:59:54;7.95;;;4.75;;
8536;SDS011;4306;50.210;10.628;2024-02-26T12:02:40;5.97;;;3.70;;
8536;SDS011;4306;50.210;10.628;2024-02-26T12:05:11;6.50;;;3.85;;
8536;SDS011;4306;50.210;10.628;2024-02-26T12:07:42;5.20;;;3.47;;
8536;SDS011;4306;50.210;10.628;2024-02-26T12:10:23;6.47;;;4.28;;
8536;SDS011;4306;50.210;10.628;2024-02-26T12:12:58;9.38;;;3.67;;
8536;SDS011;4306;50.210;10.628;2024-02-26T12:15:31;5.95;;;4.18;;
8536;SDS011;4306;50.210;10.628;2024-02-26T12:18:00;5.60;;;3.50;;
8536;SDS011;4306;50.210;10.628;2024-02-26T12:20:29;5.75;;;4.03;;
8536;SDS011;4306;50.210;10.628;2024-02-26T12:22:56;6.10;;;3.45;;
8536;SDS011;4306;50.210;10.628;2024-02-26T12:25:25;4.75;;;3.38;;
8536;SDS011;4306;50.210;10.628;2024-02-26T12:27:54;5.75;;;3.63;;
8536;SDS011;4306;50.210;10.628;2024-02-26T12:30:22;5.55;;;3.58;;
8536;SDS011;4306;50.210;10.628;2024-02-26T12:32:52;6.00;;;3.95;;
8536;SDS011;4306;50.210;10.628;2024-02-26T12:35:22;5.72;;;3.35;;
8536;SDS011;4306;50.210;10.628;2024-02-26T12:37:50;5.75;;;3.40;;
8536;SDS011;4306;50.210;10.628;2024-02-26T12:40:18;5.85;;;3.17;;
8536;SDS011;4306;50.210;10.628;2024-02-26T12:42:45;6.68;;;3.97;;
8536;SDS011;4306;50.210;10.628;2024-02-26T12:45:12;4.85;;;3.35;;
8536;SDS011;4306;50.210;10.628;2024-02-26T12:47:41;5.28;;;3.25;;
8536;SDS011;4306;50.210;10.628;2024-02-26T12:50:12;6.18;;;3.80;;
8536;SDS011;4306;50.210;10.628;2024-02-26T12:52:39;4.88;;;3.15;;
8536;SDS011;4306;50.210;10.628;2024-02-26T12:55:08;5.25;;;3.40;;
8536;SDS011;4306;50.210;10.628;2024-02-26T12:57:38;6.32;;;3.55;;
8536;SDS011;4306;50.210;10.628;2024-02-26T13:00:08;7.93;;;3.70;;
8536;SDS011;4306;50.210;10.628;2024-02-26T13:02:39;6.05;;;4.13;;
8536;SDS011;4306;50.210;10.628;2024-02-26T13:05:11;6.28;;;3.75;;
8536;SDS011;4306;50.210;10.628;2024-02-26T13:07:43;11.50;;;7.85;;
8536;SDS011;4306;50.210;10.628;2024-02-26T13:10:12;9.38;;;6.78;;
8536;SDS011;4306;50.210;10.628;2024-02-26T13:12:42;7.22;;;4.40;;
8536;SDS011;4306;50.210;10.628;2024-02-26T13:15:13;6.32;;;3.35;;
8536;SDS011;4306;50.210;10.628;2024-02-26T13:17:42;8.45;;;5.78;;
8536;SDS011;4306;50.210;10.628;2024-02-26T13:20:09;7.72;;;5.35;;
8536;SDS011;4306;50.210;10.628;2024-02-26T13:22:40;5.13;;;3.58;;
8536;SDS011;4306;50.210;10.628;2024-02-26T13:25:07;5.22;;;3.63;;
8536;SDS011;4306;50.210;10.628;2024-02-26T13:27:34;5.47;;;3.65;;
8536;SDS011;4306;50.210;10.628;2024-02-26T13:30:02;4.25;;;3.13;;
8536;SDS011;4306;50.210;10.628;2024-02-26T13:32:32;5.05;;;3.00;;
8536;SDS011;4306;50.210;10.628;2024-02-26T13:35:07;6.22;;;2.80;;
8536;SDS011;4306;50.210;10.628;2024-02-26T13:37:37;7.13;;;2.80;;
8536;SDS011;4306;50.210;10.628;2024-02-26T13:40:06;4.47;;;2.78;;
8536;SDS011;4306;50.210;10.628;2024-02-26T13:42:34;4.90;;;2.85;;
8536;SDS011;4306;50.210;10.628;2024-02-26T13:45:01;4.35;;;3.00;;
8536;SDS011;4306;50.210;10.628;2024-02-26T13:47:31;4.78;;;2.80;;
8536;SDS011;4306;50.210;10.628;2024-02-26T13:49:59;4.20;;;2.63;;
8536;SDS011;4306;50.210;10.628;2024-02-26T13:52:26;4.13;;;2.65;;
8536;SDS011;4306;50.210;10.628;2024-02-26T13:54:55;4.22;;;2.80;;
8536;SDS011;4306;50.210;10.628;2024-02-26T13:57:22;5.68;;;2.85;;
8536;SDS011;4306;50.210;10.628;2024-02-26T13:59:49;4.28;;;2.72;;
8536;SDS011;4306;50.210;10.628;2024-02-26T14:02:16;4.47;;;2.80;;
8536;SDS011;4306;50.210;10.628;2024-02-26T14:04:44;5.72;;;2.63;;
8536;SDS011;4306;50.210;10.628;2024-02-26T14:07:12;5.15;;;2.78;;
8536;SDS011;4306;50.210;10.628;2024-02-26T14:09:39;6.35;;;2.92;;
8536;SDS011;4306;50.210;10.628;2024-02-26T14:12:08;6.03;;;2.50;;
8536;SDS011;4306;50.210;10.628;2024-02-26T14:14:35;5.28;;;2.83;;
8536;SDS011;4306;50.210;10.628;2024-02-26T14:17:04;4.90;;;2.63;;
8536;SDS011;4306;50.210;10.628;2024-02-26T14:19:31;4.68;;;2.78;;
8536;SDS011;4306;50.210;10.628;2024-02-26T14:21:58;4.30;;;2.70;;
8536;SDS011;4306;50.210;10.628;2024-02-26T14:24:25;7.07;;;5.03;;
8536;SDS011;4306;50.210;10.628;2024-02-26T14:26:52;4.78;;;2.63;;
8536;SDS011;4306;50.210;10.628;2024-02-26T14:29:21;4.72;;;2.85;;
8536;SDS011;4306;50.210;10.628;2024-02-26T14:31:48;4.97;;;2.88;;
8536;SDS011;4306;50.210;10.628;2024-02-26T14:34:15;4.97;;;2.97;;
8536;SDS011;4306;50.210;10.628;2024-02-26T14:36:44;3.42;;;2.35;;
8536;SDS011;4306;50.210;10.628;2024-02-26T14:39:11;3.58;;;2.30;;
8536;SDS011;4306;50.210;10.628;2024-02-26T14:41:38;5.22;;;2.50;;
8536;SDS011;4306;50.210;10.628;2024-02-26T14:44:06;5.53;;;2.20;;
8536;SDS011;4306;50.210;10.628;2024-02-26T14:46:35;4.85;;;2.70;;
8536;SDS011;4306;50.210;10.628;2024-02-26T14:49:02;5.80;;;3.80;;
8536;SDS011;4306;50.210;10.628;2024-02-26T14:51:30;6.05;;;3.83;;
8536;SDS011;4306;50.210;10.628;2024-02-26T14:53:57;5.32;;;2.85;;
8536;SDS011;4306;50.210;10.628;2024-02-26T14:56:26;3.50;;;2.42;;
8536;SDS011;4306;50.210;10.628;2024-02-26T14:58:53;3.85;;;2.17;;
8536;SDS011;4306;50.210;10.628;2024-02-26T15:01:20;4.47;;;2.55;;
8536;SDS011;4306;50.210;10.628;2024-02-26T15:03:48;4.22;;;2.50;;